FCBB

Maya-Maya Airport

Brazzaville, Congo
METAR FCBB 180800Z 21003KT 9999 BKN020 BKN026 26/23 Q1014 NOSIG
Observed Flight Rules
Dec-18 @ 08:00 UTC (47 minutes ago) Marginal Visual Flight Rules
Wind Visibility Clouds
210° at 3 knots 10,000+ meters
  • Broken at 2,000' AGL
  • Broken at 2,600' AGL
Temperatures Readings
Current 26°C / 79°F
Dewpoint 23°C / 73°F
Humidity 84%
Altimeter 29.94" Hg
Pressure 1014 hPa
Elevation 316
METAR FCBB 180800Z 21003KT 9999 BKN020 BKN026 26/23 Q1014 NOSIG
Observed Flight Rules
Dec-18 @ 08:00 UTC
(47 minutes ago)
MVFR
Wind Visibility
210° at 3 knots 10,000+ meters
Clouds
  • Broken at 2,000' AGL
  • Broken at 2,600' AGL
Temperature Dewpoint
26°C / 79°F 23°C / 73°F
Humidity Altimeter Pressure
84% 29.94" Hg 1014 hPa